createdAt,value
2022-07-28T00:01:25.567Z,101563.81
2022-07-28T00:02:57.360Z,101573.00
2022-07-28T00:04:29.712Z,101562.50
2022-07-28T00:06:01.411Z,101564.22
2022-07-28T00:07:33.317Z,101569.47
2022-07-28T00:09:05.006Z,101564.00
2022-07-28T00:10:36.890Z,101569.06
2022-07-28T00:12:10.207Z,101572.44
2022-07-28T00:13:41.982Z,101569.84
2022-07-28T00:15:13.678Z,101564.59
2022-07-28T00:16:45.448Z,101567.34
2022-07-28T00:18:17.472Z,101565.72
2022-07-28T00:19:50.659Z,101565.63
2022-07-28T00:21:22.663Z,101559.44
2022-07-28T00:22:54.385Z,101570.25
2022-07-28T00:24:26.103Z,101566.66
2022-07-28T00:25:57.823Z,101561.94
2022-07-28T00:27:31.562Z,101551.38
2022-07-28T00:29:03.885Z,101548.69
2022-07-28T00:30:36.242Z,101545.09
2022-07-28T00:32:08.118Z,101547.59
2022-07-28T00:33:40.270Z,101550.13
2022-07-28T00:35:12.375Z,101543.00
2022-07-28T00:36:46.721Z,101552.72
2022-07-28T00:38:18.747Z,101550.06
2022-07-28T00:39:50.442Z,101550.13
2022-07-28T00:41:23.044Z,101549.19
2022-07-28T00:42:56.086Z,101541.91
2022-07-28T00:44:27.832Z,101540.88
2022-07-28T00:45:59.634Z,101545.25
2022-07-28T00:47:33.440Z,101537.44
2022-07-28T00:49:06.049Z,101536.81
2022-07-28T00:50:39.474Z,101535.03
2022-07-28T00:52:12.544Z,101539.69
2022-07-28T00:53:44.961Z,101538.91
2022-07-28T00:55:16.835Z,101540.63
2022-07-28T00:56:48.569Z,101538.03
2022-07-28T00:58:21.734Z,101540.63
2022-07-28T00:59:53.506Z,101538.91
2022-07-28T01:01:25.464Z,101531.88
2022-07-28T01:02:57.878Z,101535.38
2022-07-28T01:04:30.199Z,101537.09
2022-07-28T01:06:07.049Z,101533.13
2022-07-28T01:07:45.405Z,101534.19
2022-07-28T01:09:29.140Z,101530.81
2022-07-28T01:11:06.882Z,101531.78
2022-07-28T01:12:50.922Z,101529.03
2022-07-28T01:14:34.422Z,101519.31
2022-07-28T01:16:07.587Z,101525.91
2022-07-28T01:17:45.011Z,101518.78
2022-07-28T01:19:35.656Z,101522.31
2022-07-28T01:21:12.403Z,101528.41
2022-07-28T01:22:58.470Z,101523.94
2022-07-28T01:24:33.920Z,101524.09
2022-07-28T01:26:18.939Z,101526.78
2022-07-28T01:28:07.012Z,101531.94
2022-07-28T01:30:04.495Z,101528.75
2022-07-28T01:31:43.004Z,101529.88
2022-07-28T01:33:18.011Z,101526.50
2022-07-28T01:34:54.377Z,101524.78
2022-07-28T01:36:29.362Z,101528.22
2022-07-28T01:38:04.493Z,101531.50
2022-07-28T01:39:39.556Z,101524.53
2022-07-28T01:41:21.204Z,101523.94
2022-07-28T01:42:57.393Z,101519.69
2022-07-28T01:44:32.595Z,101521.41
2022-07-28T01:46:05.514Z,101519.53
2022-07-28T01:47:40.906Z,101516.81
2022-07-28T01:49:14.244Z,101517.22
2022-07-28T01:50:48.722Z,101512.00
2022-07-28T01:52:20.630Z,101507.00
2022-07-28T01:53:54.042Z,101508.78
2022-07-28T01:55:28.677Z,101507.84
2022-07-28T01:57:01.843Z,101515.84
2022-07-28T01:58:35.298Z,101501.78
2022-07-28T02:00:10.838Z,101507.19
2022-07-28T02:01:47.081Z,101502.16
2022-07-28T02:03:23.178Z,101507.94
2022-07-28T02:04:57.085Z,101507.25
2022-07-28T02:06:29.801Z,101508.88
2022-07-28T02:08:03.839Z,101502.63
2022-07-28T02:09:36.228Z,101496.13
2022-07-28T02:11:27.212Z,101503.94
2022-07-28T02:13:00.382Z,101502.06
2022-07-28T02:14:33.113Z,101496.56
2022-07-28T02:16:08.416Z,101500.72
2022-07-28T02:17:43.939Z,101494.47
2022-07-28T02:19:19.380Z,101496.09
2022-07-28T02:20:52.086Z,101494.66
2022-07-28T02:22:26.738Z,101492.22
2022-07-28T02:23:59.824Z,101486.19
2022-07-28T02:25:32.252Z,101494.41
2022-07-28T02:27:16.520Z,101479.63
2022-07-28T02:28:52.658Z,101485.72
2022-07-28T02:30:30.592Z,101492.84
2022-07-28T02:32:14.975Z,101485.13
2022-07-28T02:34:03.100Z,101486.22
2022-07-28T02:35:39.967Z,101487.31
2022-07-28T02:37:12.394Z,101480.28
2022-07-28T02:38:46.583Z,101481.16
2022-07-28T02:40:21.513Z,101476.84
2022-07-28T02:42:01.610Z,101463.03
2022-07-28T02:43:49.124Z,101471.09
2022-07-28T02:45:26.407Z,101469.28
2022-07-28T02:46:59.974Z,101469.59
2022-07-28T02:48:36.934Z,101474.91
2022-07-28T02:50:11.193Z,101476.56
2022-07-28T02:51:47.021Z,101465.84
2022-07-28T02:53:20.267Z,101468.50
2022-07-28T02:54:53.995Z,101470.16
2022-07-28T02:56:27.260Z,101465.59
2022-07-28T02:58:00.624Z,101461.94
2022-07-28T02:59:37.640Z,101462.59
2022-07-28T03:01:09.813Z,101466.13
2022-07-28T03:02:46.706Z,101464.59
2022-07-28T03:04:39.281Z,101460.22
2022-07-28T03:06:11.112Z,101455.84
2022-07-28T03:07:50.615Z,101461.47
2022-07-28T03:09:23.122Z,101460.69
2022-07-28T03:11:07.053Z,101460.69
2022-07-28T03:12:38.739Z,101460.00
2022-07-28T03:14:10.625Z,101465.47
2022-07-28T03:15:42.753Z,101466.66
2022-07-28T03:17:14.497Z,101458.81
2022-07-28T03:18:46.245Z,101463.38
2022-07-28T03:20:18.322Z,101465.41
2022-07-28T03:21:52.825Z,101474.47
2022-07-28T03:23:30.054Z,101474.63
2022-07-28T03:25:05.607Z,101478.22
2022-07-28T03:26:43.393Z,101471.91
2022-07-28T03:28:19.518Z,101475.34
2022-07-28T03:29:59.108Z,101470.81
2022-07-28T03:31:35.837Z,101474.31
2022-07-28T03:33:07.996Z,101474.31
2022-07-28T03:34:39.825Z,101476.19
2022-07-28T03:36:15.426Z,101476.19
2022-07-28T03:37:52.743Z,101479.72
2022-07-28T03:39:32.601Z,101480.66
2022-07-28T03:41:08.043Z,101479.00
2022-07-28T03:42:42.453Z,101480.09
2022-07-28T03:44:19.054Z,101479.41
2022-07-28T03:45:59.826Z,101477.63
2022-07-28T03:47:31.518Z,101473.09
2022-07-28T03:49:07.753Z,101481.06
2022-07-28T03:50:39.809Z,101475.91
2022-07-28T03:52:11.526Z,101478.47
2022-07-28T03:53:44.477Z,101480.97
2022-07-28T03:55:18.492Z,101484.41
2022-07-28T03:56:50.204Z,101491.44
2022-07-28T03:58:26.329Z,101485.41
2022-07-28T04:00:00.462Z,101481.28
2022-07-28T04:01:32.280Z,101481.44
2022-07-28T04:03:04.137Z,101484.88
2022-07-28T04:04:55.818Z,101479.50
2022-07-28T04:06:27.554Z,101479.50
2022-07-28T04:07:59.197Z,101477.69
2022-07-28T04:09:31.201Z,101474.97
2022-07-28T04:11:04.283Z,101479.16
2022-07-28T04:12:57.628Z,101488.84
2022-07-28T04:14:29.309Z,101479.94
2022-07-28T04:16:01.063Z,101480.72
2022-07-28T04:17:32.794Z,101480.72
2022-07-28T04:19:04.518Z,101476.28
2022-07-28T04:20:36.225Z,101477.06
2022-07-28T04:22:07.956Z,101476.19
2022-07-28T04:23:39.689Z,101469.09
2022-07-28T04:25:14.990Z,101477.06
2022-07-28T04:26:48.119Z,101464.78
2022-07-28T04:28:19.864Z,101469.47
2022-07-28T04:29:51.621Z,101464.25
2022-07-28T04:31:23.384Z,101471.19
2022-07-28T04:32:56.239Z,101472.75
2022-07-28T04:34:27.995Z,101471.66
2022-07-28T04:36:01.584Z,101468.88
2022-07-28T04:37:33.355Z,101473.25
2022-07-28T04:39:05.060Z,101476.75
2022-07-28T04:40:37.010Z,101475.72
2022-07-28T04:42:10.053Z,101471.53
2022-07-28T04:43:41.783Z,101468.00
2022-07-28T04:45:13.566Z,101482.06
2022-07-28T04:46:45.426Z,101473.25
2022-07-28T04:48:17.481Z,101477.78
2022-07-28T04:49:50.253Z,101477.94
2022-07-28T04:51:23.148Z,101475.41
2022-07-28T04:52:54.833Z,101475.75
2022-07-28T04:54:26.921Z,101473.16
2022-07-28T04:55:58.714Z,101477.63
2022-07-28T04:57:31.791Z,101470.59
2022-07-28T04:59:03.912Z,101477.63
2022-07-28T05:00:36.516Z,101478.31
2022-07-28T05:02:08.948Z,101479.88
2022-07-28T05:03:40.645Z,101477.22
2022-07-28T05:05:12.933Z,101475.41
2022-07-28T05:06:45.060Z,101472.59
2022-07-28T05:08:16.794Z,101476.13
2022-07-28T05:09:48.506Z,101473.41
2022-07-28T05:11:20.217Z,101476.19
2022-07-28T05:12:54.469Z,101485.97
2022-07-28T05:14:26.189Z,101481.59
2022-07-28T05:15:58.063Z,101475.34
2022-07-28T05:17:29.740Z,101473.47
2022-07-28T05:19:01.497Z,101478.78
2022-07-28T05:20:33.403Z,101478.31
2022-07-28T05:22:05.136Z,101476.56
2022-07-28T05:23:36.910Z,101472.47
2022-07-28T05:25:13.870Z,101478.72
2022-07-28T05:26:45.633Z,101481.28
2022-07-28T05:28:18.788Z,101472.13
2022-07-28T05:29:51.764Z,101469.25
2022-07-28T05:31:23.677Z,101468.16
2022-07-28T05:32:59.149Z,101470.59
2022-07-28T05:34:31.239Z,101468.88
2022-07-28T05:36:04.527Z,101470.81
2022-07-28T05:37:37.114Z,101468.00
2022-07-28T05:39:08.819Z,101471.19
2022-07-28T05:40:40.558Z,101473.63
2022-07-28T05:42:12.289Z,101471.81
2022-07-28T05:43:45.572Z,101476.50
2022-07-28T05:45:17.863Z,101469.31
2022-07-28T05:46:49.749Z,101475.19
2022-07-28T05:48:22.190Z,101470.38
2022-07-28T05:49:53.889Z,101464.59
2022-07-28T05:51:25.630Z,101471.44
2022-07-28T05:52:57.383Z,101473.88
2022-07-28T05:54:29.195Z,101466.31
2022-07-28T05:56:01.809Z,101473.97
2022-07-28T05:57:33.701Z,101475.69
2022-07-28T05:59:10.109Z,101471.94
2022-07-28T06:00:41.967Z,101470.06
2022-07-28T06:02:13.743Z,101463.41
2022-07-28T06:03:50.517Z,101467.47
2022-07-28T06:05:30.923Z,101467.19
2022-07-28T06:07:02.718Z,101467.78
2022-07-28T06:08:34.572Z,101470.38
2022-07-28T06:10:07.313Z,101465.56
2022-07-28T06:11:39.049Z,101470.53
2022-07-28T06:13:14.387Z,101460.84
2022-07-28T06:14:47.550Z,101466.66
2022-07-28T06:16:21.140Z,101471.63
2022-07-28T06:17:55.436Z,101465.91
2022-07-28T06:19:27.309Z,101472.78
2022-07-28T06:20:59.280Z,101471.78
2022-07-28T06:22:40.975Z,101465.44
2022-07-28T06:24:13.114Z,101465.56
2022-07-28T06:25:45.056Z,101468.78
2022-07-28T06:27:16.751Z,101461.56
2022-07-28T06:28:48.556Z,101467.13
2022-07-28T06:30:22.636Z,101461.78
2022-07-28T06:31:54.438Z,101466.59
2022-07-28T06:33:26.477Z,101465.97
2022-07-28T06:34:58.192Z,101480.25
2022-07-28T06:36:29.950Z,101470.34
2022-07-28T06:38:01.776Z,101482.59
2022-07-28T06:39:34.002Z,101477.13
2022-07-28T06:41:05.793Z,101481.59
2022-07-28T06:42:37.726Z,101473.38
2022-07-28T06:44:12.226Z,101474.81
2022-07-28T06:45:45.763Z,101479.66
2022-07-28T06:47:17.768Z,101471.63
2022-07-28T06:48:51.347Z,101475.59
2022-07-28T06:50:26.308Z,101472.47
2022-07-28T06:51:58.726Z,101464.38
2022-07-28T06:53:33.980Z,101474.09
2022-07-28T06:55:07.168Z,101474.56
2022-07-28T06:56:42.393Z,101474.38
2022-07-28T06:58:14.096Z,101472.59
2022-07-28T06:59:46.698Z,101483.44
2022-07-28T07:01:19.872Z,101467.75
2022-07-28T07:02:51.639Z,101466.50
2022-07-28T07:04:23.439Z,101469.94
2022-07-28T07:05:55.221Z,101464.06
2022-07-28T07:07:26.944Z,101467.69
2022-07-28T07:08:58.637Z,101457.75
2022-07-28T07:10:30.401Z,101465.28
2022-07-28T07:12:02.355Z,101461.66
2022-07-28T07:13:34.009Z,101455.66
2022-07-28T07:15:07.229Z,101462.97
2022-07-28T07:16:40.536Z,101459.63
2022-07-28T07:18:12.401Z,101458.97
2022-07-28T07:19:44.108Z,101460.59
2022-07-28T07:21:15.886Z,101455.16
2022-07-28T07:22:47.736Z,101453.75
2022-07-28T07:24:19.645Z,101450.13
2022-07-28T07:25:54.275Z,101452.84
2022-07-28T07:27:25.977Z,101449.47
2022-07-28T07:28:57.761Z,101446.78
2022-07-28T07:30:29.863Z,101448.13
2022-07-28T07:32:06.857Z,101453.72
2022-07-28T07:33:41.978Z,101440.19
2022-07-28T07:35:13.860Z,101436.38
2022-07-28T07:36:45.708Z,101437.94
2022-07-28T07:38:17.753Z,101448.97
2022-07-28T07:39:49.482Z,101447.59
2022-07-28T07:41:21.562Z,101444.88
2022-07-28T07:42:54.192Z,101437.69
2022-07-28T07:44:25.938Z,101438.56
2022-07-28T07:45:57.811Z,101436.69
2022-07-28T07:47:31.247Z,101439.41
2022-07-28T07:49:02.982Z,101443.16
2022-07-28T07:50:35.223Z,101446.16
2022-07-28T07:52:07.061Z,101442.41
2022-07-28T07:53:38.832Z,101440.69
2022-07-28T07:55:10.815Z,101454.19
2022-07-28T07:56:42.517Z,101448.31
2022-07-28T07:58:14.876Z,101439.47
2022-07-28T07:59:46.700Z,101449.50
2022-07-28T08:01:18.507Z,101439.16
2022-07-28T08:02:51.636Z,101443.63
2022-07-28T08:04:25.242Z,101441.38
2022-07-28T08:05:57.648Z,101447.25
2022-07-28T08:07:29.419Z,101444.16
2022-07-28T08:09:01.196Z,101445.22
2022-07-28T08:10:33.617Z,101438.97
2022-07-28T08:12:05.968Z,101439.19
2022-07-28T08:13:37.766Z,101436.28
2022-07-28T08:15:10.966Z,101440.19
2022-07-28T08:16:42.765Z,101433.88
2022-07-28T08:18:15.994Z,101429.63
2022-07-28T08:19:47.920Z,101430.38
2022-07-28T08:21:19.692Z,101435.28
2022-07-28T08:22:53.103Z,101430.47
2022-07-28T08:24:32.997Z,101425.66
2022-07-28T08:26:06.044Z,101429.53
2022-07-28T08:27:37.791Z,101425.97
2022-07-28T08:29:09.674Z,101434.63
2022-07-28T08:30:42.544Z,101427.53
2022-07-28T08:32:14.384Z,101426.03
2022-07-28T08:33:53.380Z,101422.09
2022-07-28T08:35:35.391Z,101422.41
2022-07-28T08:37:07.547Z,101422.63
2022-07-28T08:38:39.316Z,101412.19
2022-07-28T08:40:14.772Z,101408.97
2022-07-28T08:41:51.638Z,101416.44
2022-07-28T08:43:31.500Z,101406.91
2022-07-28T08:45:05.963Z,101411.66
2022-07-28T08:46:38.467Z,101416.75
2022-07-28T08:48:12.163Z,101411.19
2022-07-28T08:49:47.314Z,101406.38
2022-07-28T08:51:20.623Z,101405.94
2022-07-28T08:52:54.039Z,101406.06
2022-07-28T08:54:28.781Z,101400.22
2022-07-28T08:56:04.242Z,101400.97
2022-07-28T08:57:40.500Z,101399.69
2022-07-28T08:59:12.299Z,101406.16
2022-07-28T09:00:44.297Z,101391.56
2022-07-28T09:02:16.554Z,101403.31
2022-07-28T09:03:49.701Z,101389.78
2022-07-28T09:05:24.115Z,101408.03
2022-07-28T09:06:56.275Z,101402.44
2022-07-28T09:08:28.176Z,101401.88
2022-07-28T09:10:03.164Z,101399.81
2022-07-28T09:11:35.270Z,101399.81
2022-07-28T09:13:07.067Z,101402.97
2022-07-28T09:14:38.920Z,101407.69
2022-07-28T09:16:13.677Z,101405.31
2022-07-28T09:17:45.461Z,101398.72
2022-07-28T09:19:17.461Z,101393.13
2022-07-28T09:20:50.678Z,101395.09
2022-07-28T09:22:22.724Z,101406.56
2022-07-28T09:23:54.615Z,101404.63
2022-07-28T09:25:27.189Z,101412.38
2022-07-28T09:27:01.421Z,101410.66
2022-07-28T09:28:47.262Z,101408.81
2022-07-28T09:30:29.163Z,101404.69
2022-07-28T09:32:01.034Z,101401.63
2022-07-28T09:33:42.060Z,101408.09
2022-07-28T09:35:19.753Z,101404.31
2022-07-28T09:36:53.141Z,101398.84
2022-07-28T09:38:27.769Z,101398.09
2022-07-28T09:40:10.672Z,101396.03
2022-07-28T09:41:49.968Z,101393.72
2022-07-28T09:43:31.860Z,101395.56
2022-07-28T09:45:22.399Z,101398.84
2022-07-28T09:46:56.169Z,101408.84
2022-07-28T09:48:28.478Z,101398.47
2022-07-28T09:50:01.228Z,101394.69
2022-07-28T09:51:34.192Z,101395.53
2022-07-28T09:53:22.864Z,101393.72
2022-07-28T09:55:00.505Z,101385.19
2022-07-28T09:56:32.358Z,101378.72
2022-07-28T09:58:09.692Z,101373.28
2022-07-28T09:59:42.998Z,101374.25
2022-07-28T10:01:21.149Z,101375.13
2022-07-28T10:02:53.087Z,101380.22
2022-07-28T10:04:32.971Z,101375.34
2022-07-28T10:06:08.262Z,101378.38
2022-07-28T10:07:49.018Z,101365.69
2022-07-28T10:09:26.757Z,101368.09
2022-07-28T10:10:59.139Z,101373.13
2022-07-28T10:12:33.192Z,101377.19
2022-07-28T10:14:06.610Z,101365.47
2022-07-28T10:15:56.656Z,101362.78
2022-07-28T10:17:30.185Z,101370.97
2022-07-28T10:19:04.626Z,101370.16
2022-07-28T10:20:37.139Z,101364.41
2022-07-28T10:22:09.051Z,101365.97
2022-07-28T10:23:41.696Z,101359.03
2022-07-28T10:25:16.304Z,101370.16
2022-07-28T10:26:49.303Z,101350.38
2022-07-28T10:28:23.221Z,101365.28
2022-07-28T10:29:58.204Z,101356.47
2022-07-28T10:31:34.849Z,101347.06
2022-07-28T10:33:14.666Z,101345.97
2022-07-28T10:34:50.547Z,101344.34
2022-07-28T10:36:24.748Z,101348.88
2022-07-28T10:38:00.010Z,101342.03
2022-07-28T10:39:41.177Z,101340.44
2022-07-28T10:41:16.943Z,101346.66
2022-07-28T10:42:48.651Z,101341.28
2022-07-28T10:44:21.678Z,101336.09
2022-07-28T10:46:05.509Z,101334.09
2022-07-28T10:47:38.518Z,101335.09
2022-07-28T10:49:11.377Z,101346.19
2022-07-28T10:50:44.224Z,101328.44
2022-07-28T10:52:45.840Z,101336.84
2022-07-28T10:54:24.895Z,101339.78
2022-07-28T10:56:03.163Z,101331.50
2022-07-28T10:57:41.572Z,101327.22
2022-07-28T10:59:32.233Z,101322.25
2022-07-28T11:01:06.182Z,101326.16
2022-07-28T11:02:44.436Z,101322.09
2022-07-28T11:04:52.635Z,101327.00
2022-07-28T11:06:26.884Z,101319.97
2022-07-28T11:08:01.186Z,101317.41
2022-07-28T11:09:34.102Z,101321.56
2022-07-28T11:11:08.983Z,101322.38
2022-07-28T11:12:53.271Z,101319.09
2022-07-28T11:14:37.050Z,101319.69
2022-07-28T11:16:24.780Z,101318.31
2022-07-28T11:18:01.433Z,101324.69
2022-07-28T11:20:16.374Z,101324.38
2022-07-28T11:22:22.646Z,101317.13
2022-07-28T11:23:56.246Z,101326.78
2022-07-28T11:25:28.287Z,101317.56
2022-07-28T11:27:03.789Z,101319.41
2022-07-28T11:29:17.367Z,101318.09
2022-07-28T11:30:51.492Z,101321.34
2022-07-28T11:32:23.242Z,101312.38
2022-07-28T11:33:59.298Z,101310.53
2022-07-28T11:35:33.238Z,101311.34
2022-07-28T11:37:06.436Z,101300.53
2022-07-28T11:38:38.158Z,101299.13
2022-07-28T11:40:34.541Z,101300.72
2022-07-28T11:42:25.177Z,101297.38
2022-07-28T11:43:58.351Z,101307.31
2022-07-28T11:45:38.459Z,101305.09
2022-07-28T11:47:21.823Z,101311.63
2022-07-28T11:49:16.739Z,101302.94
2022-07-28T11:51:10.206Z,101291.25
2022-07-28T11:52:52.966Z,101296.75
2022-07-28T11:54:25.345Z,101291.84
2022-07-28T11:56:02.946Z,101299.09
2022-07-28T11:57:40.321Z,101294.94
2022-07-28T11:59:16.483Z,101291.28
2022-07-28T12:00:48.253Z,101288.44
2022-07-28T12:02:26.136Z,101289.72
2022-07-28T12:04:01.211Z,101283.75
2022-07-28T12:05:34.348Z,101284.75
2022-07-28T12:07:13.876Z,101280.50
2022-07-28T12:08:52.460Z,101286.34
2022-07-28T12:10:53.388Z,101279.97
2022-07-28T12:12:22.188Z,101272.50
2022-07-28T12:13:59.084Z,101265.13
2022-07-28T12:15:32.442Z,101277.03
2022-07-28T12:17:04.367Z,101276.06
2022-07-28T12:18:36.893Z,101269.16
2022-07-28T12:20:11.417Z,101269.59
2022-07-28T12:21:49.322Z,101270.75
2022-07-28T12:23:44.219Z,101273.91
2022-07-28T12:25:20.013Z,101264.53
2022-07-28T12:26:51.888Z,101271.06
2022-07-28T12:28:24.302Z,101266.13
2022-07-28T12:29:57.485Z,101262.13
2022-07-28T12:31:33.220Z,101253.78
2022-07-28T12:33:16.789Z,101255.63
2022-07-28T12:34:49.457Z,101266.41
2022-07-28T12:36:24.375Z,101251.06
2022-07-28T12:37:56.758Z,101246.81
2022-07-28T12:39:30.027Z,101248.38
2022-07-28T12:41:01.789Z,101253.63
2022-07-28T12:42:33.625Z,101249.97
2022-07-28T12:44:06.073Z,101250.25
2022-07-28T12:45:44.973Z,101244.94
2022-07-28T12:47:28.036Z,101247.34
2022-07-28T12:49:01.328Z,101245.63
2022-07-28T12:50:37.777Z,101240.44
2022-07-28T12:52:17.397Z,101242.97
2022-07-28T12:53:52.103Z,101246.94
2022-07-28T12:55:25.645Z,101243.47
2022-07-28T12:56:57.368Z,101244.44
2022-07-28T12:58:29.585Z,101243.38
2022-07-28T13:00:06.721Z,101238.72
2022-07-28T13:01:49.138Z,101250.19
2022-07-28T13:03:24.683Z,101240.84
2022-07-28T13:04:56.475Z,101232.22
2022-07-28T13:06:30.115Z,101236.91
2022-07-28T13:08:04.931Z,101238.66
2022-07-28T13:09:39.576Z,101217.88
2022-07-28T13:11:42.089Z,101227.88
2022-07-28T13:13:07.054Z,101218.59
2022-07-28T13:14:39.200Z,101217.78
2022-07-28T13:16:12.048Z,101209.03
2022-07-28T13:17:53.349Z,101220.41
2022-07-28T13:19:26.476Z,101220.78
2022-07-28T13:20:58.268Z,101213.00
2022-07-28T13:22:32.820Z,101209.50
2022-07-28T13:24:05.486Z,101219.47
2022-07-28T13:25:37.519Z,101218.00
2022-07-28T13:27:10.607Z,101216.66
2022-07-28T13:28:42.329Z,101214.78
2022-07-28T13:30:14.085Z,101221.09
2022-07-28T13:31:45.823Z,101203.13
2022-07-28T13:33:18.344Z,101207.88
2022-07-28T13:34:51.864Z,101205.38
2022-07-28T13:36:23.649Z,101209.44
2022-07-28T13:37:55.330Z,101202.13
2022-07-28T13:39:27.629Z,101211.81
2022-07-28T13:40:59.419Z,101208.59
2022-07-28T13:42:31.166Z,101211.63
2022-07-28T13:44:03.049Z,101206.19
2022-07-28T13:45:36.070Z,101210.63
2022-07-28T13:47:08.368Z,101207.00
2022-07-28T13:48:58.043Z,101211.78
2022-07-28T13:50:33.090Z,101205.31
2022-07-28T13:52:06.431Z,101205.13
2022-07-28T13:53:44.705Z,101210.50
2022-07-28T13:55:19.777Z,101198.91
2022-07-28T13:57:13.379Z,101195.63
2022-07-28T13:58:45.211Z,101198.25
2022-07-28T14:00:18.735Z,101198.25
2022-07-28T14:01:51.161Z,101198.75
2022-07-28T14:03:23.065Z,101202.94
2022-07-28T14:04:55.013Z,101194.94
2022-07-28T14:06:28.808Z,101191.19
2022-07-28T14:08:00.824Z,101189.16
2022-07-28T14:09:35.190Z,101188.00
2022-07-28T14:11:10.937Z,101193.91
2022-07-28T14:12:45.094Z,101185.72
2022-07-28T14:14:20.186Z,101200.56
2022-07-28T14:15:52.245Z,101188.06
2022-07-28T14:17:44.203Z,101193.09
2022-07-28T14:19:23.651Z,101188.56
2022-07-28T14:21:09.285Z,101181.44
2022-07-28T14:22:42.599Z,101185.31
2022-07-28T14:24:14.787Z,101182.50
2022-07-28T14:25:49.535Z,101195.28
2022-07-28T14:27:27.186Z,101189.50
2022-07-28T14:29:00.729Z,101188.97
2022-07-28T14:30:33.242Z,101184.69
2022-07-28T14:32:09.053Z,101176.84
2022-07-28T14:33:46.363Z,101181.63
2022-07-28T14:35:18.835Z,101173.13
2022-07-28T14:36:53.032Z,101178.81
2022-07-28T14:38:51.785Z,101181.81
2022-07-28T14:40:18.693Z,101179.38
2022-07-28T14:41:50.653Z,101181.25
2022-07-28T14:43:22.496Z,101178.34
2022-07-28T14:44:54.234Z,101176.38
2022-07-28T14:46:29.789Z,101178.53
2022-07-28T14:48:01.697Z,101177.28
2022-07-28T14:49:34.091Z,101174.38
2022-07-28T14:51:05.995Z,101177.94
2022-07-28T14:52:37.722Z,101177.09
2022-07-28T14:54:10.918Z,101187.25
2022-07-28T14:55:42.798Z,101191.66
2022-07-28T14:57:14.811Z,101171.59
2022-07-28T14:58:46.509Z,101185.63
2022-07-28T15:00:19.108Z,101176.75
2022-07-28T15:01:51.036Z,101179.09
2022-07-28T15:03:23.001Z,101180.66
2022-07-28T15:04:54.884Z,101172.44
2022-07-28T15:06:26.626Z,101182.50
2022-07-28T15:07:58.335Z,101177.97
2022-07-28T15:09:31.961Z,101179.41
2022-07-28T15:11:03.640Z,101167.25
2022-07-28T15:12:36.880Z,101176.28
2022-07-28T15:14:08.907Z,101172.25
2022-07-28T15:15:44.653Z,101180.75
2022-07-28T15:17:16.666Z,101179.41
2022-07-28T15:18:48.421Z,101175.38
2022-07-28T15:20:20.296Z,101181.41
2022-07-28T15:21:52.110Z,101178.56
2022-07-28T15:23:24.379Z,101182.25
2022-07-28T15:24:57.874Z,101170.78
2022-07-28T15:26:29.689Z,101178.25
2022-07-28T15:28:01.405Z,101171.97
2022-07-28T15:29:35.283Z,101170.59
2022-07-28T15:31:08.470Z,101170.94
2022-07-28T15:32:55.934Z,101161.97
2022-07-28T15:34:28.384Z,101162.47
2022-07-28T15:36:00.512Z,101165.50
2022-07-28T15:37:32.307Z,101165.69
2022-07-28T15:39:05.322Z,101169.25
2022-07-28T15:40:40.675Z,101165.19
2022-07-28T15:42:12.447Z,101169.94
2022-07-28T15:43:44.372Z,101172.97
2022-07-28T15:45:16.445Z,101161.44
2022-07-28T15:46:48.305Z,101161.75
2022-07-28T15:48:21.420Z,101169.34
2022-07-28T15:49:53.414Z,101167.34
2022-07-28T15:51:26.225Z,101163.44
2022-07-28T15:52:58.092Z,101167.69
2022-07-28T15:54:29.975Z,101163.63
2022-07-28T15:56:04.139Z,101160.75
2022-07-28T15:57:38.091Z,101166.13
2022-07-28T15:59:09.948Z,101160.19
2022-07-28T16:00:41.751Z,101157.66
2022-07-28T16:02:13.668Z,101168.84
2022-07-28T16:03:50.245Z,101165.28
2022-07-28T16:05:22.196Z,101162.75
2022-07-28T16:07:12.499Z,101161.78
2022-07-28T16:08:44.246Z,101168.53
2022-07-28T16:10:16.086Z,101161.25
2022-07-28T16:11:49.152Z,101158.72
2022-07-28T16:13:35.846Z,101151.78
2022-07-28T16:15:09.387Z,101159.94
2022-07-28T16:16:41.347Z,101150.25
2022-07-28T16:18:13.083Z,101154.31
2022-07-28T16:19:49.886Z,101152.25
2022-07-28T16:21:22.584Z,101156.13
2022-07-28T16:22:56.427Z,101150.84
2022-07-28T16:24:28.262Z,101145.78
2022-07-28T16:26:00.128Z,101149.19
2022-07-28T16:27:33.267Z,101148.66
2022-07-28T16:29:05.013Z,101158.44
2022-07-28T16:30:36.760Z,101145.75
2022-07-28T16:32:08.513Z,101146.53
2022-07-28T16:33:40.199Z,101147.41
2022-07-28T16:35:12.746Z,101149.56
2022-07-28T16:36:44.664Z,101149.56
2022-07-28T16:38:16.510Z,101147.41
2022-07-28T16:39:49.099Z,101147.56
2022-07-28T16:41:20.807Z,101141.59
2022-07-28T16:42:54.241Z,101142.44
2022-07-28T16:44:25.969Z,101142.75
2022-07-28T16:45:57.807Z,101141.06
2022-07-28T16:47:29.513Z,101138.19
2022-07-28T16:49:01.838Z,101145.63
2022-07-28T16:50:33.792Z,101135.97
2022-07-28T16:52:05.749Z,101138.00
2022-07-28T16:53:37.989Z,101142.03
2022-07-28T16:55:14.721Z,101137.63
2022-07-28T16:56:49.190Z,101141.47
2022-07-28T16:58:22.661Z,101142.41
2022-07-28T16:59:54.524Z,101147.13
2022-07-28T17:01:26.628Z,101148.66
2022-07-28T17:02:58.324Z,101145.34
2022-07-28T17:04:30.195Z,101148.41
2022-07-28T17:06:04.256Z,101140.63
2022-07-28T17:07:44.681Z,101150.38
2022-07-28T17:09:17.309Z,101136.47
2022-07-28T17:10:49.120Z,101145.53
2022-07-28T17:12:20.793Z,101149.16
2022-07-28T17:13:53.977Z,101140.88
2022-07-28T17:15:25.850Z,101134.25
2022-07-28T17:16:57.546Z,101133.16
2022-07-28T17:18:29.381Z,101142.56
2022-07-28T17:20:01.234Z,101144.41
2022-07-28T17:21:33.039Z,101148.59
2022-07-28T17:23:04.889Z,101146.50
2022-07-28T17:24:37.381Z,101146.50
2022-07-28T17:27:12.923Z,101144.50
2022-07-28T17:28:01.010Z,101145.94
2022-07-28T17:29:34.105Z,101145.63
2022-07-28T17:31:06.029Z,101142.50
2022-07-28T17:32:38.044Z,101139.78
2022-07-28T17:34:14.460Z,101144.88
2022-07-28T17:35:49.050Z,101144.41
2022-07-28T17:37:21.765Z,101149.81
2022-07-28T17:38:53.440Z,101142.56
2022-07-28T17:40:27.492Z,101148.66
2022-07-28T17:41:59.552Z,101145.75
2022-07-28T17:43:32.267Z,101145.09
2022-07-28T17:45:06.221Z,101143.00
2022-07-28T17:46:38.042Z,101145.00
2022-07-28T17:48:10.564Z,101142.25
2022-07-28T17:49:45.544Z,101141.06
2022-07-28T17:51:20.478Z,101143.75
2022-07-28T17:52:52.184Z,101137.00
2022-07-28T17:54:24.995Z,101139.69
2022-07-28T17:56:01.360Z,101135.03
2022-07-28T17:57:37.763Z,101133.63
2022-07-28T17:59:09.857Z,101137.66
2022-07-28T18:00:44.762Z,101140.03
2022-07-28T18:02:16.877Z,101147.00